Time;durP1;ratioP1;P1;durP2;ratioP2;P2;SDS_P1;SDS_P2;PMS_P1;PMS_P2;Temp;Humidity;BMP_temperature;BMP_pressure;BME280_temperature;BME280_humidity;BME280_pressure;Samples;Min_cycle;Max_cycle;Signal;HPM_P1;HPM_P2
2022/07/09 00:02:25;;;;;;;5.30;1.93;;;19.50;65.20;;;;;;5031773;28;20495;-80
2022/07/09 00:04:53;;;;;;;5.80;2.20;;;19.40;65.30;;;;;;5043038;28;20461;-80
2022/07/09 00:07:26;;;;;;;6.40;2.70;;;19.40;65.30;;;;;;5034636;28;20513;-81
2022/07/09 00:09:54;;;;;;;4.90;2.07;;;19.40;65.30;;;;;;5050315;28;20528;-81
2022/07/09 00:12:29;;;;;;;5.77;2.10;;;19.30;65.30;;;;;;5039356;28;20461;-80
2022/07/09 00:14:57;;;;;;;5.60;2.13;;;19.30;65.30;;;;;;5054300;28;20570;-81
2022/07/09 00:17:25;;;;;;;6.57;2.27;;;19.30;65.40;;;;;;5034726;28;20593;-81
2022/07/09 00:19:53;;;;;;;7.23;2.47;;;19.30;65.50;;;;;;5038293;28;20469;-81
2022/07/09 00:22:43;;;;;;;6.37;2.33;;;19.30;65.40;;;;;;5040779;28;20466;-80
2022/07/09 00:25:16;;;;;;;5.17;2.57;;;19.20;65.50;;;;;;5037879;28;20465;-80
2022/07/09 00:27:49;;;;;;;4.40;2.07;;;19.20;65.40;;;;;;5039667;28;20571;-80
2022/07/09 00:30:20;;;;;;;7.17;2.77;;;19.10;65.30;;;;;;5032401;28;20462;-80
2022/07/09 00:32:48;;;;;;;4.90;2.13;;;19.10;65.40;;;;;;5054117;28;21137;-80
2022/07/09 00:35:17;;;;;;;7.10;1.93;;;19.00;65.40;;;;;;5041549;28;20457;-81
2022/07/09 00:37:45;;;;;;;5.60;2.77;;;18.90;65.50;;;;;;5057167;28;20892;-81
2022/07/09 00:40:15;;;;;;;9.30;3.73;;;18.90;65.60;;;;;;5056693;28;20554;-81
2022/07/09 00:42:45;;;;;;;4.80;2.17;;;18.80;65.70;;;;;;5052038;28;21072;-80
2022/07/09 00:45:17;;;;;;;6.10;2.33;;;18.80;65.80;;;;;;5037544;28;20848;-80
2022/07/09 00:47:45;;;;;;;4.40;1.70;;;18.70;65.90;;;;;;5038004;28;20492;-80
2022/07/09 00:50:16;;;;;;;5.73;2.70;;;18.70;65.90;;;;;;5054666;28;20466;-81
2022/07/09 00:52:45;;;;;;;5.63;1.90;;;18.70;65.90;;;;;;5052064;28;20457;-80
2022/07/09 00:55:16;;;;;;;5.80;2.27;;;18.70;66.00;;;;;;5053057;28;20472;-81
2022/07/09 00:57:46;;;;;;;6.70;2.40;;;18.60;66.00;;;;;;5053534;28;20480;-80
2022/07/09 01:00:19;;;;;;;5.40;2.13;;;18.60;66.00;;;;;;5031720;28;20462;-80
2022/07/09 01:02:50;;;;;;;7.23;3.13;;;18.60;66.10;;;;;;5053294;28;20495;-80
2022/07/09 01:05:18;;;;;;;6.40;2.73;;;18.60;66.20;;;;;;5033388;28;20471;-80
2022/07/09 01:07:46;;;;;;;15.23;8.03;;;18.60;66.30;;;;;;5059270;28;20484;-81
2022/07/09 01:10:16;;;;;;;10.03;5.83;;;18.60;66.20;;;;;;5057398;28;20458;-80
2022/07/09 01:12:46;;;;;;;11.10;4.87;;;18.60;66.20;;;;;;5036265;28;20452;-80
2022/07/09 01:15:14;;;;;;;11.47;5.00;;;18.60;66.30;;;;;;5041055;28;20814;-80
2022/07/09 01:17:55;;;;;;;7.77;4.23;;;18.60;66.30;;;;;;5039773;28;20487;-79
2022/07/09 01:20:31;;;;;;;10.90;5.73;;;18.50;66.20;;;;;;5052633;28;20452;-80
2022/07/09 01:23:02;;;;;;;9.57;5.27;;;18.50;66.20;;;;;;5055895;28;20496;-80
2022/07/09 01:25:36;;;;;;;7.37;3.87;;;18.40;66.30;;;;;;5055514;28;20484;-81
2022/07/09 01:28:07;;;;;;;7.17;3.30;;;18.40;66.30;;;;;;5047648;28;20627;-80
2022/07/09 01:30:37;;;;;;;12.20;5.07;;;18.30;66.30;;;;;;5055603;28;20933;-80
2022/07/09 01:33:05;;;;;;;12.37;6.73;;;18.30;66.40;;;;;;5033980;28;20505;-79
2022/07/09 01:35:35;;;;;;;10.37;4.70;;;18.30;66.50;;;;;;5032795;28;20574;-79
2022/07/09 01:38:04;;;;;;;10.07;4.47;;;18.20;66.50;;;;;;5056045;28;20513;-79
2022/07/09 01:40:32;;;;;;;8.83;3.70;;;18.20;66.60;;;;;;5037903;28;20448;-79
2022/07/09 01:43:01;;;;;;;6.60;3.30;;;18.20;66.70;;;;;;5035019;28;20523;-79
2022/07/09 01:45:29;;;;;;;5.70;3.13;;;18.30;66.70;;;;;;5049865;28;20531;-79
2022/07/09 01:47:57;;;;;;;6.67;3.47;;;18.20;66.70;;;;;;5055371;28;20574;-79
2022/07/09 01:50:25;;;;;;;8.73;3.70;;;18.20;66.60;;;;;;5034482;28;20987;-78
2022/07/09 01:52:54;;;;;;;7.93;3.43;;;18.20;66.60;;;;;;5037168;28;21059;-79
2022/07/09 01:55:25;;;;;;;6.90;3.50;;;18.10;66.70;;;;;;5046156;28;20549;-79
2022/07/09 01:57:55;;;;;;;9.77;5.07;;;18.10;66.80;;;;;;5030780;28;20484;-79
2022/07/09 02:00:24;;;;;;;10.73;5.93;;;18.10;66.90;;;;;;5049617;28;20813;-79
2022/07/09 02:02:52;;;;;;;8.60;4.53;;;18.10;66.90;;;;;;5045406;28;20569;-79
2022/07/09 02:05:20;;;;;;;8.10;4.20;;;18.10;67.10;;;;;;5040238;28;20483;-79
2022/07/09 02:07:48;;;;;;;6.30;3.67;;;18.10;67.00;;;;;;5053210;28;20490;-79
2022/07/09 02:10:17;;;;;;;7.43;3.37;;;18.10;66.90;;;;;;5035325;28;20452;-79
2022/07/09 02:12:45;;;;;;;5.30;2.67;;;17.90;67.00;;;;;;5043392;28;20480;-79
2022/07/09 02:15:13;;;;;;;5.30;2.50;;;17.90;67.10;;;;;;5048046;28;20854;-80
2022/07/09 02:17:42;;;;;;;5.43;2.50;;;17.80;67.30;;;;;;5045126;28;20485;-79
2022/07/09 02:20:11;;;;;;;7.10;3.17;;;17.80;67.50;;;;;;5045442;28;21325;-80
2022/07/09 02:22:39;;;;;;;9.17;3.20;;;17.90;67.60;;;;;;5033132;28;20456;-79
2022/07/09 02:25:09;;;;;;;7.70;3.67;;;17.90;67.70;;;;;;5051857;28;20456;-79
2022/07/09 02:27:38;;;;;;;13.60;4.17;;;18.00;67.70;;;;;;5054608;28;21280;-79
2022/07/09 02:30:07;;;;;;;5.17;3.17;;;18.00;67.80;;;;;;5046567;28;20544;-79
2022/07/09 02:32:38;;;;;;;6.70;2.97;;;18.00;67.80;;;;;;5042232;28;20534;-80
2022/07/09 02:35:07;;;;;;;7.30;3.67;;;18.00;67.80;;;;;;5040950;28;20476;-79
2022/07/09 02:37:38;;;;;;;7.10;2.83;;;18.00;67.90;;;;;;5031270;28;20478;-80
2022/07/09 02:40:07;;;;;;;12.80;2.93;;;18.00;67.90;;;;;;5055240;28;20491;-79
2022/07/09 02:42:36;;;;;;;6.40;3.10;;;18.00;67.90;;;;;;5040529;28;20481;-79
2022/07/09 02:45:07;;;;;;;5.40;2.83;;;18.00;67.90;;;;;;5040729;28;20546;-79
2022/07/09 02:47:37;;;;;;;5.50;2.73;;;17.90;68.00;;;;;;5052086;28;20468;-79
2022/07/09 02:50:08;;;;;;;8.47;3.20;;;17.90;68.00;;;;;;5037117;28;20561;-80
2022/07/09 02:52:36;;;;;;;5.90;3.23;;;17.90;68.10;;;;;;5032219;28;20558;-79
2022/07/09 02:55:06;;;;;;;6.40;2.97;;;17.90;68.20;;;;;;5033953;28;20480;-79
2022/07/09 02:57:41;;;;;;;5.80;2.43;;;17.90;68.20;;;;;;5050778;28;20478;-78
2022/07/09 03:00:15;;;;;;;5.40;3.10;;;18.00;68.20;;;;;;5031963;28;20459;-80
2022/07/09 03:02:47;;;;;;;7.23;2.90;;;18.00;68.30;;;;;;5030696;28;20479;-79
2022/07/09 03:05:17;;;;;;;8.87;3.63;;;18.00;68.20;;;;;;5048860;28;20467;-79
2022/07/09 03:07:48;;;;;;;4.90;2.80;;;17.90;68.20;;;;;;5054655;28;20508;-78
2022/07/09 03:10:18;;;;;;;6.77;3.13;;;17.90;68.30;;;;;;5027782;28;20463;-79
2022/07/09 03:12:46;;;;;;;6.00;2.70;;;17.90;68.30;;;;;;5035960;28;20494;-79
2022/07/09 03:15:26;;;;;;;6.00;3.00;;;17.90;68.30;;;;;;5030373;28;20557;-79
2022/07/09 03:17:54;;;;;;;6.47;2.77;;;17.90;68.30;;;;;;5047028;28;20489;-79
2022/07/09 03:20:25;;;;;;;5.40;2.70;;;17.90;68.30;;;;;;5053168;28;20459;-80
2022/07/09 03:22:53;;;;;;;5.07;2.90;;;17.90;68.30;;;;;;5054765;28;20463;-80
2022/07/09 03:25:23;;;;;;;5.40;2.87;;;17.80;68.30;;;;;;5039318;28;20505;-80
2022/07/09 03:27:51;;;;;;;6.57;2.60;;;17.80;68.40;;;;;;5052514;28;20494;-80
2022/07/09 03:30:19;;;;;;;4.80;2.47;;;17.80;68.40;;;;;;5056760;28;20984;-79
2022/07/09 03:32:55;;;;;;;6.80;2.80;;;17.80;68.50;;;;;;5055779;28;20980;-80
2022/07/09 03:35:23;;;;;;;7.07;2.83;;;17.80;68.60;;;;;;5041153;28;20464;-79
2022/07/09 03:37:51;;;;;;;8.30;3.77;;;17.70;68.70;;;;;;5035824;28;20509;-79
2022/07/09 03:40:19;;;;;;;4.90;2.60;;;17.80;68.80;;;;;;5046506;28;21136;-79
2022/07/09 03:42:47;;;;;;;7.73;3.00;;;17.80;68.80;;;;;;5047432;28;20463;-78
2022/07/09 03:45:15;;;;;;;5.43;2.70;;;17.80;68.80;;;;;;5048377;28;21115;-78
2022/07/09 03:47:44;;;;;;;6.90;3.17;;;17.80;68.90;;;;;;5042526;28;20540;-79
2022/07/09 03:50:15;;;;;;;5.80;3.20;;;17.80;69.00;;;;;;5051322;28;20471;-79
2022/07/09 03:52:48;;;;;;;4.90;2.70;;;17.80;69.00;;;;;;5033727;28;20491;-77
2022/07/09 03:55:16;;;;;;;5.90;2.50;;;17.80;69.10;;;;;;5033307;28;20447;-78
2022/07/09 03:57:45;;;;;;;5.50;2.80;;;17.90;69.00;;;;;;5052359;28;20494;-78
2022/07/09 04:00:14;;;;;;;6.87;3.27;;;17.90;69.00;;;;;;5053306;28;20508;-77
2022/07/09 04:02:52;;;;;;;6.10;3.07;;;17.80;69.10;;;;;;5034313;28;20485;-79
2022/07/09 04:05:25;;;;;;;6.40;3.00;;;17.80;69.20;;;;;;5040307;28;20864;-78
2022/07/09 04:07:58;;;;;;;5.03;2.33;;;17.80;69.30;;;;;;5057603;28;20474;-78
2022/07/09 04:10:31;;;;;;;5.77;2.70;;;17.80;69.30;;;;;;5049708;28;22509;-79
2022/07/09 04:13:13;;;;;;;5.90;3.13;;;17.90;69.40;;;;;;5031079;28;20495;-79
2022/07/09 04:15:48;;;;;;;6.70;3.00;;;17.90;69.50;;;;;;5030472;28;20463;-80
2022/07/09 04:18:18;;;;;;;7.70;2.83;;;17.90;69.50;;;;;;5034525;28;20492;-78
2022/07/09 04:20:51;;;;;;;6.43;2.77;;;18.00;69.50;;;;;;5054753;28;20463;-79
2022/07/09 04:23:21;;;;;;;9.87;2.67;;;18.00;69.60;;;;;;5037094;28;20517;-79
2022/07/09 04:25:51;;;;;;;6.93;2.63;;;18.10;69.60;;;;;;5051206;28;20480;-79
2022/07/09 04:28:19;;;;;;;6.47;2.73;;;18.10;69.50;;;;;;5026495;28;20549;-79
2022/07/09 04:30:47;;;;;;;8.50;2.80;;;18.20;69.60;;;;;;5029409;28;20502;-79
2022/07/09 04:33:15;;;;;;;6.30;2.90;;;18.20;69.70;;;;;;5027146;28;20471;-79
2022/07/09 04:35:48;;;;;;;6.23;2.77;;;18.30;69.70;;;;;;5032943;28;20472;-79
2022/07/09 04:38:17;;;;;;;4.77;2.30;;;18.40;69.70;;;;;;5045189;28;20485;-79
2022/07/09 04:40:45;;;;;;;5.73;2.90;;;18.50;69.80;;;;;;5025555;28;20491;-79
2022/07/09 04:43:13;;;;;;;5.50;3.03;;;18.60;69.80;;;;;;5028360;28;20463;-79
2022/07/09 04:45:41;;;;;;;5.80;3.30;;;18.70;69.80;;;;;;5035684;28;20529;-79
2022/07/09 04:48:10;;;;;;;6.00;3.17;;;18.80;69.80;;;;;;5035894;28;20614;-79
2022/07/09 04:50:38;;;;;;;7.17;3.20;;;19.00;69.80;;;;;;5047276;28;21379;-77
2022/07/09 04:53:06;;;;;;;6.03;3.10;;;19.10;69.70;;;;;;5036835;28;20471;-78
2022/07/09 04:55:35;;;;;;;8.87;4.03;;;19.20;69.60;;;;;;5038244;28;20515;-78
2022/07/09 04:58:05;;;;;;;6.33;2.87;;;19.40;69.50;;;;;;5055095;28;20539;-79
2022/07/09 05:00:33;;;;;;;6.90;2.60;;;19.50;69.40;;;;;;5036792;28;20543;-79
2022/07/09 05:03:04;;;;;;;5.77;3.43;;;19.60;69.30;;;;;;5031452;28;20615;-79
2022/07/09 05:05:38;;;;;;;7.57;3.03;;;19.70;69.20;;;;;;5035791;28;20472;-78
2022/07/09 05:08:23;;;;;;;7.40;2.67;;;19.80;69.20;;;;;;5051485;28;20530;-79
2022/07/09 05:11:12;;;;;;;7.23;2.57;;;20.00;69.10;;;;;;5036819;28;20459;-78
2022/07/09 05:13:48;;;;;;;6.13;2.30;;;20.10;69.10;;;;;;5031676;28;20470;-78
2022/07/09 05:16:18;;;;;;;5.73;2.67;;;20.30;68.90;;;;;;5032153;28;20499;-79
2022/07/09 05:18:50;;;;;;;6.13;3.03;;;20.40;68.80;;;;;;5044440;28;20522;-79
2022/07/09 05:21:31;;;;;;;6.40;2.43;;;20.50;68.70;;;;;;5052179;28;20454;-79
2022/07/09 05:24:05;;;;;;;5.40;2.53;;;20.60;68.50;;;;;;5054286;28;20454;-78
2022/07/09 05:26:40;;;;;;;5.00;2.20;;;20.60;68.40;;;;;;5035110;28;20903;-78
2022/07/09 05:29:28;;;;;;;6.80;2.70;;;20.70;68.40;;;;;;5051841;28;20458;-78
2022/07/09 05:32:03;;;;;;;6.27;2.80;;;20.80;68.40;;;;;;5015184;28;20483;-79
2022/07/09 05:35:15;;;;;;;4.60;2.30;;;20.90;68.60;;;;;;5049545;28;20952;-80
2022/07/09 05:37:55;;;;;;;6.07;2.60;;;21.10;68.80;;;;;;5036676;28;20483;-80
2022/07/09 05:40:31;;;;;;;7.03;2.40;;;21.40;69.40;;;;;;5048048;28;20552;-80
2022/07/09 05:43:08;;;;;;;5.57;1.93;;;21.90;69.00;;;;;;5038341;28;20451;-79
2022/07/09 05:45:39;;;;;;;4.47;1.97;;;22.60;67.60;;;;;;5038916;28;20480;-80
2022/07/09 05:48:13;;;;;;;5.43;2.20;;;23.20;66.20;;;;;;5039091;28;20473;-80
2022/07/09 05:50:52;;;;;;;4.70;2.03;;;23.70;65.50;;;;;;5050186;28;20457;-79
2022/07/09 05:53:44;;;;;;;5.87;2.03;;;24.70;64.30;;;;;;5050713;28;20476;-80
2022/07/09 05:56:36;;;;;;;11.43;2.43;;;25.50;63.10;;;;;;5025670;28;20466;-80
2022/07/09 05:59:23;;;;;;;5.87;2.00;;;26.40;61.30;;;;;;5049338;28;20464;-80
2022/07/09 06:01:59;;;;;;;6.57;2.07;;;27.20;60.10;;;;;;5024170;28;20464;-80
2022/07/09 06:04:47;;;;;;;8.53;1.90;;;27.70;59.30;;;;;;5030700;28;20451;-80
2022/07/09 06:07:26;;;;;;;5.43;1.83;;;28.20;58.30;;;;;;5029597;28;20630;-80
2022/07/09 06:09:57;;;;;;;6.43;2.20;;;28.60;57.50;;;;;;5031341;28;20471;-80
2022/07/09 06:12:28;;;;;;;4.83;2.20;;;29.00;56.70;;;;;;5034891;28;20464;-80
2022/07/09 06:15:31;;;;;;;5.50;1.80;;;29.10;56.00;;;;;;5052031;28;21210;-80
2022/07/09 06:18:06;;;;;;;9.20;2.20;;;28.70;55.20;;;;;;5066875;28;20525;-80
2022/07/09 06:20:52;;;;;;;5.90;2.10;;;28.20;55.70;;;;;;5091747;28;20478;-80
2022/07/09 06:23:45;;;;;;;;;;;;;;;;;;;;;
2022/07/09 06:26:33;;;;;;;4.20;1.73;;;27.30;56.30;;;;;;5088667;28;20466;-80
2022/07/09 06:29:19;;;;;;;5.10;2.20;;;26.80;56.60;;;;;;5094315;28;20481;-79
2022/07/09 06:32:23;;;;;;;4.60;1.67;;;26.20;56.40;;;;;;5083548;28;20472;-79
2022/07/09 06:35:03;;;;;;;5.33;2.10;;;25.60;57.20;;;;;;5088637;28;20575;-79
2022/07/09 06:37:33;;;;;;;5.10;1.90;;;25.00;57.80;;;;;;5091884;28;20489;-79
2022/07/09 06:40:15;;;;;;;6.60;2.47;;;24.60;58.40;;;;;;5093498;28;20513;-79
2022/07/09 06:42:47;;;;;;;7.60;2.60;;;24.20;58.90;;;;;;5090020;28;20460;-79
2022/07/09 06:45:22;;;;;;;4.37;1.80;;;23.80;59.50;;;;;;5066010;28;20497;-79
2022/07/09 06:47:54;;;;;;;3.73;1.60;;;23.60;60.00;;;;;;5079975;28;20819;-79
2022/07/09 06:50:22;;;;;;;9.13;2.23;;;23.40;60.40;;;;;;5095816;28;20468;-79
2022/07/09 06:52:50;;;;;;;5.53;2.43;;;23.20;60.60;;;;;;5097379;28;21230;-79
2022/07/09 06:55:21;;;;;;;5.70;2.73;;;23.10;61.00;;;;;;5077410;28;20462;-79
2022/07/09 06:57:49;;;;;;;8.53;2.50;;;23.00;61.30;;;;;;5097850;28;20471;-79
2022/07/09 07:00:20;;;;;;;10.30;4.13;;;22.80;61.60;;;;;;5082123;28;20585;-79
2022/07/09 07:02:49;;;;;;;6.70;1.90;;;22.70;61.80;;;;;;5095922;28;20466;-79
2022/07/09 07:05:19;;;;;;;5.40;2.27;;;22.60;62.10;;;;;;5084878;28;20463;-79
2022/07/09 07:07:47;;;;;;;4.40;2.10;;;22.60;62.40;;;;;;5092833;28;20478;-79
2022/07/09 07:10:15;;;;;;;5.60;2.27;;;22.50;62.60;;;;;;5092112;28;20545;-79
2022/07/09 07:12:43;;;;;;;5.23;2.70;;;22.50;62.90;;;;;;5087557;28;20514;-79
2022/07/09 07:15:11;;;;;;;7.87;2.20;;;22.40;63.10;;;;;;5081283;28;20456;-79
2022/07/09 07:17:40;;;;;;;5.20;2.37;;;22.40;63.30;;;;;;5082715;28;20475;-79
2022/07/09 07:20:08;;;;;;;5.40;2.20;;;22.40;63.40;;;;;;5082491;28;20468;-79
2022/07/09 07:22:43;;;;;;;5.30;2.20;;;22.50;63.40;;;;;;5083687;28;21096;-79
2022/07/09 07:25:13;;;;;;;5.83;2.50;;;22.40;63.60;;;;;;5088077;28;20475;-79
2022/07/09 07:27:41;;;;;;;6.63;2.77;;;22.40;63.60;;;;;;5099410;28;20979;-80
2022/07/09 07:30:10;;;;;;;4.50;2.40;;;22.50;63.70;;;;;;5099330;28;21053;-79
2022/07/09 07:32:38;;;;;;;7.50;2.43;;;22.50;63.90;;;;;;5080311;28;20537;-79
2022/07/09 07:35:09;;;;;;;6.80;2.63;;;22.60;63.90;;;;;;5095191;28;20616;-79
2022/07/09 07:37:50;;;;;;;5.73;2.67;;;22.60;63.90;;;;;;5077306;28;20488;-80
2022/07/09 07:40:26;;;;;;;7.87;3.27;;;22.60;64.10;;;;;;5098483;28;20457;-79
2022/07/09 07:42:56;;;;;;;6.97;2.73;;;22.70;64.10;;;;;;5082819;28;20996;-79
2022/07/09 07:45:25;;;;;;;8.30;2.93;;;22.70;64.10;;;;;;5100396;28;20463;-79
2022/07/09 07:47:56;;;;;;;8.53;2.90;;;22.80;64.10;;;;;;5078596;28;21289;-79
2022/07/09 07:50:25;;;;;;;7.50;3.17;;;22.80;64.20;;;;;;5102688;28;21173;-79
2022/07/09 07:52:58;;;;;;;5.30;2.90;;;22.90;64.30;;;;;;5087621;28;20451;-79
2022/07/09 07:55:29;;;;;;;9.90;3.47;;;22.90;64.30;;;;;;5081878;28;20445;-79
2022/07/09 07:58:01;;;;;;;9.30;2.97;;;23.00;64.30;;;;;;5098216;28;20481;-78
2022/07/09 08:00:32;;;;;;;6.83;2.97;;;23.00;64.30;;;;;;5081348;28;20503;-77
2022/07/09 08:02:59;;;;;;;11.03;4.10;;;23.10;64.30;;;;;;5085436;28;20500;-76
2022/07/09 08:05:28;;;;;;;8.50;4.13;;;23.10;64.30;;;;;;5087367;28;20466;-78
2022/07/09 08:07:57;;;;;;;9.67;4.47;;;23.20;64.30;;;;;;5090495;28;20500;-77
2022/07/09 08:10:26;;;;;;;6.50;3.17;;;23.20;64.30;;;;;;5084341;28;20466;-79
2022/07/09 08:12:59;;;;;;;9.37;3.87;;;23.20;64.20;;;;;;5074142;28;20453;-79
2022/07/09 08:15:28;;;;;;;12.80;4.17;;;23.20;64.10;;;;;;5072186;28;20500;-76
2022/07/09 08:17:56;;;;;;;7.33;3.40;;;23.20;64.20;;;;;;5085235;28;20474;-76
2022/07/09 08:20:24;;;;;;;6.77;3.53;;;23.20;64.20;;;;;;5084269;28;20458;-76
2022/07/09 08:22:52;;;;;;;7.90;3.80;;;23.20;64.10;;;;;;5081411;28;20996;-76
2022/07/09 08:25:22;;;;;;;6.80;3.37;;;23.20;64.10;;;;;;5081539;28;20567;-77
2022/07/09 08:27:50;;;;;;;13.77;3.83;;;23.00;64.10;;;;;;5065377;28;20514;-76
2022/07/09 08:30:18;;;;;;;7.80;4.23;;;23.00;64.20;;;;;;5084255;28;20483;-77
2022/07/09 08:32:46;;;;;;;8.73;3.73;;;22.90;64.30;;;;;;5085258;28;20472;-77
2022/07/09 08:35:14;;;;;;;5.70;3.23;;;22.90;64.50;;;;;;5086988;28;20534;-76
2022/07/09 08:37:42;;;;;;;8.80;4.03;;;22.90;64.70;;;;;;5085229;28;21047;-76
2022/07/09 08:40:11;;;;;;;5.60;2.80;;;22.90;64.80;;;;;;5072192;28;20449;-77
2022/07/09 08:42:42;;;;;;;7.03;3.20;;;22.90;64.60;;;;;;5085353;28;20469;-77
2022/07/09 08:45:13;;;;;;;6.43;2.97;;;22.90;64.40;;;;;;5084453;28;20468;-76
2022/07/09 08:47:42;;;;;;;5.83;2.40;;;22.90;64.30;;;;;;5089424;28;20519;-76
2022/07/09 08:50:11;;;;;;;6.00;2.07;;;22.90;64.10;;;;;;5086335;28;20453;-77
2022/07/09 08:52:41;;;;;;;5.03;2.10;;;22.90;63.90;;;;;;5066870;28;20486;-77
2022/07/09 08:55:10;;;;;;;5.80;2.53;;;23.00;63.90;;;;;;5065017;28;20480;-76
2022/07/09 08:57:38;;;;;;;5.90;2.50;;;23.10;63.80;;;;;;5085127;28;21044;-78
2022/07/09 09:00:09;;;;;;;6.40;2.30;;;23.10;62.50;;;;;;5080991;28;20957;-76
2022/07/09 09:02:38;;;;;;;6.60;2.40;;;23.10;63.00;;;;;;5086906;28;20474;-76
2022/07/09 09:05:11;;;;;;;5.03;2.17;;;23.00;62.70;;;;;;5072081;28;20515;-77
2022/07/09 09:07:39;;;;;;;6.63;2.87;;;23.00;62.80;;;;;;5086608;28;20492;-77
2022/07/09 09:10:08;;;;;;;10.80;2.93;;;22.90;62.80;;;;;;5085936;28;20477;-77
2022/07/09 09:12:36;;;;;;;6.50;2.53;;;22.90;62.80;;;;;;5080223;28;20577;-77
2022/07/09 09:15:10;;;;;;;6.73;2.87;;;22.90;62.90;;;;;;5086236;28;20491;-76
2022/07/09 09:17:45;;;;;;;7.30;3.00;;;22.90;62.80;;;;;;5067310;28;20555;-77
2022/07/09 09:20:13;;;;;;;6.90;3.20;;;22.90;62.90;;;;;;5062486;28;20458;-77
2022/07/09 09:22:48;;;;;;;8.93;3.07;;;22.90;62.90;;;;;;5085103;28;20467;-77
2022/07/09 09:25:17;;;;;;;4.57;2.27;;;22.90;62.90;;;;;;5088510;28;20466;-78
2022/07/09 09:27:53;;;;;;;7.63;2.57;;;22.90;63.00;;;;;;5087852;28;20522;-77
2022/07/09 09:30:23;;;;;;;5.47;3.00;;;23.00;63.00;;;;;;5064563;28;20462;-77
2022/07/09 09:32:58;;;;;;;6.43;2.93;;;23.00;62.90;;;;;;5067664;28;20475;-77
2022/07/09 09:35:27;;;;;;;5.63;3.10;;;23.00;63.00;;;;;;5060739;28;20464;-77
2022/07/09 09:37:56;;;;;;;6.40;3.10;;;23.00;63.00;;;;;;5082713;28;20481;-77
2022/07/09 09:40:25;;;;;;;5.73;2.87;;;23.00;63.00;;;;;;5086064;28;20455;-77
2022/07/09 09:42:54;;;;;;;5.60;3.30;;;22.90;63.00;;;;;;5083740;28;20492;-77
2022/07/09 09:45:28;;;;;;;9.43;3.50;;;22.90;63.00;;;;;;5071513;28;20466;-77
2022/07/09 09:47:59;;;;;;;7.67;3.20;;;22.80;63.10;;;;;;5066295;28;20502;-77
2022/07/09 09:50:27;;;;;;;7.50;3.03;;;22.80;63.30;;;;;;5062235;28;20472;-77
2022/07/09 09:52:56;;;;;;;12.80;3.37;;;22.80;63.30;;;;;;5083834;28;20471;-77
2022/07/09 09:55:56;;;;;;;6.60;3.43;;;22.80;63.30;;;;;;5195034;27;20639;-77
2022/07/09 09:58:25;;;;;;;8.57;3.07;;;22.80;63.30;;;;;;5158694;27;20666;-77
2022/07/09 10:00:54;;;;;;;7.03;3.30;;;22.80;63.30;;;;;;5145004;27;20565;-78
2022/07/09 10:03:23;;;;;;;7.03;3.00;;;22.80;63.30;;;;;;5114724;27;20463;-78
2022/07/09 10:05:52;;;;;;;4.83;2.60;;;22.90;63.30;;;;;;5118826;28;20993;-79
2022/07/09 10:08:20;;;;;;;10.90;2.97;;;22.90;63.30;;;;;;5114416;27;20514;-78
2022/07/09 10:10:51;;;;;;;6.83;3.00;;;22.90;63.30;;;;;;5120379;27;20557;-78
2022/07/09 10:13:23;;;;;;;6.37;3.07;;;23.00;63.30;;;;;;5117892;28;20457;-78
2022/07/09 10:15:52;;;;;;;6.00;3.47;;;23.00;63.40;;;;;;5119790;27;20497;-77
2022/07/09 10:18:20;;;;;;;9.50;3.73;;;23.10;63.30;;;;;;5100464;27;20479;-77
2022/07/09 10:20:49;;;;;;;10.47;3.87;;;23.20;63.40;;;;;;5121266;27;20450;-77
2022/07/09 10:23:24;;;;;;;7.60;3.73;;;23.30;63.10;;;;;;5103355;27;20449;-77
2022/07/09 10:25:55;;;;;;;7.10;3.30;;;23.30;63.20;;;;;;5119494;27;20543;-77
2022/07/09 10:28:25;;;;;;;7.23;4.30;;;23.40;63.20;;;;;;5121638;27;20908;-77
2022/07/09 10:30:54;;;;;;;6.77;3.80;;;23.50;63.20;;;;;;5097423;28;21090;-77
2022/07/09 10:33:24;;;;;;;7.30;4.03;;;23.50;63.10;;;;;;5115434;27;21186;-78
2022/07/09 10:35:54;;;;;;;7.43;3.77;;;23.60;63.10;;;;;;5101596;28;20520;-77
2022/07/09 10:38:24;;;;;;;5.60;3.50;;;23.60;63.10;;;;;;5120542;28;20498;-77
2022/07/09 10:40:58;;;;;;;6.47;3.50;;;23.70;62.90;;;;;;5093783;28;20456;-76
2022/07/09 10:43:44;;;;;;;7.00;4.37;;;23.70;62.90;;;;;;5121639;28;20548;-80
2022/07/09 10:46:12;;;;;;;6.33;3.87;;;23.80;62.90;;;;;;5119378;28;20464;-79
2022/07/09 10:48:41;;;;;;;6.60;4.23;;;23.90;62.80;;;;;;5120762;28;21201;-77
2022/07/09 10:51:16;;;;;;;11.17;4.40;;;24.00;62.10;;;;;;5122390;28;20468;-78
2022/07/09 10:53:44;;;;;;;8.23;4.20;;;23.90;62.10;;;;;;5116578;28;20529;-77
2022/07/09 10:56:12;;;;;;;6.13;4.37;;;23.90;61.80;;;;;;5118621;28;21194;-78
2022/07/09 10:58:46;;;;;;;8.50;4.00;;;23.80;61.70;;;;;;5117952;27;20987;-77
2022/07/09 11:01:20;;;;;;;9.20;4.23;;;23.80;61.70;;;;;;5117788;28;21136;-76
2022/07/09 11:03:50;;;;;;;7.83;4.07;;;23.70;61.80;;;;;;5119483;28;20450;-77
2022/07/09 11:06:18;;;;;;;6.80;4.10;;;23.60;61.90;;;;;;5089788;28;20488;-77
2022/07/09 11:08:46;;;;;;;6.40;4.00;;;23.60;62.00;;;;;;5100572;28;20487;-78
2022/07/09 11:11:21;;;;;;;7.20;3.77;;;23.60;62.10;;;;;;5102527;28;20494;-77
2022/07/09 11:13:54;;;;;;;6.20;3.50;;;23.60;62.20;;;;;;5088019;28;21008;-77
2022/07/09 11:16:26;;;;;;;6.03;3.60;;;23.60;62.10;;;;;;5086781;28;20474;-78
2022/07/09 11:18:55;;;;;;;10.63;4.00;;;23.70;62.20;;;;;;5087290;28;20534;-77
2022/07/09 11:21:24;;;;;;;10.00;4.47;;;23.70;62.20;;;;;;5101892;28;20477;-78
2022/07/09 11:23:52;;;;;;;8.63;4.87;;;23.80;62.10;;;;;;5102026;28;22327;-78
2022/07/09 11:26:20;;;;;;;9.70;4.50;;;23.80;62.00;;;;;;5104228;28;20461;-79
2022/07/09 11:28:48;;;;;;;5.77;3.30;;;23.80;61.90;;;;;;5107363;28;20510;-78
2022/07/09 11:31:18;;;;;;;7.13;3.70;;;23.80;61.90;;;;;;5101037;28;20435;-79
2022/07/09 11:36:37;;;;;;;7.90;4.47;;;23.90;61.70;;;;;;5107619;28;20450;-79
2022/07/09 11:39:05;;;;;;;6.40;4.40;;;24.00;61.40;;;;;;5104018;28;20462;-78
2022/07/09 11:41:42;;;;;;;8.20;4.30;;;24.00;61.20;;;;;;5101811;28;20531;-78
2022/07/09 11:44:11;;;;;;;7.10;3.60;;;24.00;61.20;;;;;;5104184;28;20986;-77
2022/07/09 11:46:41;;;;;;;5.37;3.53;;;24.00;61.10;;;;;;5105904;27;20491;-75
2022/07/09 11:49:16;;;;;;;8.40;3.53;;;24.10;61.00;;;;;;5087575;28;20448;-76
2022/07/09 11:51:44;;;;;;;6.13;3.30;;;24.20;61.10;;;;;;5106186;28;21678;-76
2022/07/09 11:54:12;;;;;;;6.03;3.43;;;24.30;61.00;;;;;;5082920;28;20558;-77
2022/07/09 11:56:45;;;;;;;6.13;3.10;;;24.40;60.80;;;;;;5084990;28;20461;-78
2022/07/09 11:59:13;;;;;;;5.83;2.83;;;24.50;60.30;;;;;;5104542;27;20466;-79
2022/07/09 12:01:43;;;;;;;7.60;4.20;;;24.40;59.90;;;;;;5102503;28;20472;-78
2022/07/09 12:04:20;;;;;;;5.63;3.53;;;24.40;59.80;;;;;;5104990;28;20454;-78
2022/07/09 12:06:49;;;;;;;6.63;3.70;;;24.30;59.50;;;;;;5102135;28;20599;-79
2022/07/09 12:09:29;;;;;;;8.50;3.70;;;24.30;59.60;;;;;;5083470;27;20461;-75
2022/07/09 12:11:58;;;;;;;7.63;4.10;;;24.30;59.50;;;;;;5100706;28;20485;-73
2022/07/09 12:14:26;;;;;;;7.70;3.50;;;24.30;59.40;;;;;;5103129;28;20984;-75
2022/07/09 12:16:57;;;;;;;8.10;4.10;;;24.20;59.50;;;;;;5101942;28;20587;-75
2022/07/09 12:19:26;;;;;;;6.37;3.90;;;24.20;59.70;;;;;;5086496;28;20472;-74
2022/07/09 12:21:54;;;;;;;7.43;4.27;;;24.20;59.70;;;;;;5105807;28;20447;-74
2022/07/09 12:24:26;;;;;;;6.50;4.00;;;24.20;59.80;;;;;;5100455;28;20688;-74
2022/07/09 12:26:54;;;;;;;7.30;4.13;;;24.30;59.90;;;;;;5101042;28;20479;-74
2022/07/09 12:29:42;;;;;;;7.70;4.90;;;24.30;60.00;;;;;;5100068;28;20458;-73
2022/07/09 12:32:12;;;;;;;6.40;4.10;;;24.40;59.90;;;;;;5098125;28;20476;-76
2022/07/09 12:34:40;;;;;;;7.80;3.77;;;24.50;59.90;;;;;;5101709;28;21119;-75
2022/07/09 12:37:08;;;;;;;7.30;3.63;;;24.50;59.70;;;;;;5101036;28;20580;-74
2022/07/09 12:39:36;;;;;;;8.50;4.17;;;24.60;59.80;;;;;;5102076;28;20448;-73
2022/07/09 12:42:05;;;;;;;5.90;3.83;;;24.70;59.70;;;;;;5096685;28;20452;-74
2022/07/09 12:44:33;;;;;;;8.40;4.47;;;24.80;59.70;;;;;;5101090;28;20876;-74
2022/07/09 12:47:01;;;;;;;5.30;3.63;;;24.90;59.50;;;;;;5098672;28;20549;-74
2022/07/09 12:49:30;;;;;;;7.10;4.10;;;24.90;59.30;;;;;;5081833;28;20523;-75
2022/07/09 12:51:58;;;;;;;5.67;3.77;;;24.90;59.20;;;;;;5104543;28;20473;-75
2022/07/09 12:54:26;;;;;;;5.97;4.13;;;25.00;59.10;;;;;;5082872;28;20474;-74
2022/07/09 12:56:55;;;;;;;6.60;3.83;;;25.10;59.00;;;;;;5085348;28;20483;-74
2022/07/09 12:59:39;;;;;;;6.83;3.27;;;25.10;58.80;;;;;;5106474;27;20841;-74
2022/07/09 13:02:08;;;;;;;6.37;3.40;;;25.10;58.50;;;;;;5105496;28;21031;-75
2022/07/09 13:04:37;;;;;;;5.53;3.10;;;25.20;58.20;;;;;;5105686;28;20541;-73
2022/07/09 13:07:05;;;;;;;5.43;2.93;;;25.20;57.90;;;;;;5101988;28;20527;-74
2022/07/09 13:09:34;;;;;;;6.47;3.40;;;25.20;57.10;;;;;;5099966;28;21014;-74
2022/07/09 13:12:02;;;;;;;6.10;3.00;;;25.20;57.30;;;;;;5100799;28;20451;-75
2022/07/09 13:14:30;;;;;;;5.03;2.90;;;25.20;57.10;;;;;;5104039;28;20555;-74